sensor_id;sensor_type;location;lat;lon;timestamp;temperature;humidity
9975;DHT22;5028;50.974;4.968;2023-03-14T00:00:08;11.30;99.90
9975;DHT22;5028;50.974;4.968;2023-03-14T00:02:43;11.20;99.90
9975;DHT22;5028;50.974;4.968;2023-03-14T00:05:12;11.20;99.90
9975;DHT22;5028;50.974;4.968;2023-03-14T00:07:41;11.20;99.90
9975;DHT22;5028;50.974;4.968;2023-03-14T00:10:17;11.20;99.90
9975;DHT22;5028;50.974;4.968;2023-03-14T00:12:58;11.20;99.90
9975;DHT22;5028;50.974;4.968;2023-03-14T00:15:34;11.20;99.90
9975;DHT22;5028;50.974;4.968;2023-03-14T00:18:08;11.20;99.90
9975;DHT22;5028;50.974;4.968;2023-03-14T00:20:37;11.30;99.90
9975;DHT22;5028;50.974;4.968;2023-03-14T00:23:06;11.30;99.90
9975;DHT22;5028;50.974;4.968;2023-03-14T00:25:43;11.20;99.90
9975;DHT22;5028;50.974;4.968;2023-03-14T00:28:11;11.20;99.90
9975;DHT22;5028;50.974;4.968;2023-03-14T00:30:47;11.20;99.90
9975;DHT22;5028;50.974;4.968;2023-03-14T00:33:22;11.20;99.90
9975;DHT22;5028;50.974;4.968;2023-03-14T00:35:55;11.10;99.90
9975;DHT22;5028;50.974;4.968;2023-03-14T00:38:32;11.10;99.90
9975;DHT22;5028;50.974;4.968;2023-03-14T00:41:05;11.10;99.90
9975;DHT22;5028;50.974;4.968;2023-03-14T00:43:41;11.10;99.90
9975;DHT22;5028;50.974;4.968;2023-03-14T00:46:10;11.00;99.90
9975;DHT22;5028;50.974;4.968;2023-03-14T00:48:39;11.00;99.90
9975;DHT22;5028;50.974;4.968;2023-03-14T00:51:14;11.00;99.90
9975;DHT22;5028;50.974;4.968;2023-03-14T00:53:43;10.90;99.90
9975;DHT22;5028;50.974;4.968;2023-03-14T00:56:20;10.90;99.90
9975;DHT22;5028;50.974;4.968;2023-03-14T00:58:55;10.90;99.90
9975;DHT22;5028;50.974;4.968;2023-03-14T01:01:24;10.90;99.90
9975;DHT22;5028;50.974;4.968;2023-03-14T01:04:00;10.80;99.90
9975;DHT22;5028;50.974;4.968;2023-03-14T01:06:36;10.80;99.90
9975;DHT22;5028;50.974;4.968;2023-03-14T01:09:05;10.80;99.90
9975;DHT22;5028;50.974;4.968;2023-03-14T01:11:42;10.80;99.90
9975;DHT22;5028;50.974;4.968;2023-03-14T01:14:18;10.70;99.90
9975;DHT22;5028;50.974;4.968;2023-03-14T01:16:54;10.70;99.90
9975;DHT22;5028;50.974;4.968;2023-03-14T01:19:33;10.70;99.90
9975;DHT22;5028;50.974;4.968;2023-03-14T01:22:04;10.70;99.90
9975;DHT22;5028;50.974;4.968;2023-03-14T01:24:39;10.70;99.90
9975;DHT22;5028;50.974;4.968;2023-03-14T01:27:16;10.60;99.90
9975;DHT22;5028;50.974;4.968;2023-03-14T01:29:45;10.60;99.90
9975;DHT22;5028;50.974;4.968;2023-03-14T01:32:20;10.60;99.90
9975;DHT22;5028;50.974;4.968;2023-03-14T01:34:57;10.60;99.90
9975;DHT22;5028;50.974;4.968;2023-03-14T01:37:26;10.60;99.90
9975;DHT22;5028;50.974;4.968;2023-03-14T01:40:00;10.60;99.90
9975;DHT22;5028;50.974;4.968;2023-03-14T01:42:34;10.60;99.90
9975;DHT22;5028;50.974;4.968;2023-03-14T01:48:18;10.60;99.90
9975;DHT22;5028;50.974;4.968;2023-03-14T01:50:47;10.60;99.90
9975;DHT22;5028;50.974;4.968;2023-03-14T01:53:23;10.60;99.90
9975;DHT22;5028;50.974;4.968;2023-03-14T01:55:58;10.60;99.90
9975;DHT22;5028;50.974;4.968;2023-03-14T01:58:29;10.60;99.90
9975;DHT22;5028;50.974;4.968;2023-03-14T02:01:09;10.60;99.90
9975;DHT22;5028;50.974;4.968;2023-03-14T02:03:44;10.50;99.90
9975;DHT22;5028;50.974;4.968;2023-03-14T02:06:24;10.40;99.90
9975;DHT22;5028;50.974;4.968;2023-03-14T02:08:54;10.40;99.90
9975;DHT22;5028;50.974;4.968;2023-03-14T02:11:36;10.30;99.90
9975;DHT22;5028;50.974;4.968;2023-03-14T02:14:27;10.30;99.90
9975;DHT22;5028;50.974;4.968;2023-03-14T02:17:05;10.20;99.90
9975;DHT22;5028;50.974;4.968;2023-03-14T02:19:47;10.20;99.90
9975;DHT22;5028;50.974;4.968;2023-03-14T02:22:24;10.20;99.90
9975;DHT22;5028;50.974;4.968;2023-03-14T02:24:59;10.20;99.90
9975;DHT22;5028;50.974;4.968;2023-03-14T02:27:40;10.20;99.90
9975;DHT22;5028;50.974;4.968;2023-03-14T02:30:11;10.20;99.90
9975;DHT22;5028;50.974;4.968;2023-03-14T02:32:47;10.10;99.90
9975;DHT22;5028;50.974;4.968;2023-03-14T02:35:19;10.00;99.90
9975;DHT22;5028;50.974;4.968;2023-03-14T02:38:00;9.90;99.90
9975;DHT22;5028;50.974;4.968;2023-03-14T02:40:31;9.80;99.90
9975;DHT22;5028;50.974;4.968;2023-03-14T02:43:07;9.60;99.90
9975;DHT22;5028;50.974;4.968;2023-03-14T02:45:41;9.50;99.90
9975;DHT22;5028;50.974;4.968;2023-03-14T02:48:19;9.40;99.90
9975;DHT22;5028;50.974;4.968;2023-03-14T02:50:57;9.40;99.90
9975;DHT22;5028;50.974;4.968;2023-03-14T02:53:29;9.30;99.90
9975;DHT22;5028;50.974;4.968;2023-03-14T02:56:06;9.30;99.90
9975;DHT22;5028;50.974;4.968;2023-03-14T02:58:36;9.30;99.90
9975;DHT22;5028;50.974;4.968;2023-03-14T03:01:12;9.20;99.90
9975;DHT22;5028;50.974;4.968;2023-03-14T03:03:48;9.20;99.90
9975;DHT22;5028;50.974;4.968;2023-03-14T03:06:17;9.20;99.90
9975;DHT22;5028;50.974;4.968;2023-03-14T03:08:52;9.20;99.90
9975;DHT22;5028;50.974;4.968;2023-03-14T03:11:35;9.20;99.90
9975;DHT22;5028;50.974;4.968;2023-03-14T03:14:18;9.20;99.90
9975;DHT22;5028;50.974;4.968;2023-03-14T03:16:54;9.20;99.90
9975;DHT22;5028;50.974;4.968;2023-03-14T03:19:29;9.20;99.90
9975;DHT22;5028;50.974;4.968;2023-03-14T03:21:58;9.20;99.90
9975;DHT22;5028;50.974;4.968;2023-03-14T03:24:33;9.10;99.90
9975;DHT22;5028;50.974;4.968;2023-03-14T03:27:02;9.10;99.90
9975;DHT22;5028;50.974;4.968;2023-03-14T03:29:38;9.10;99.90
9975;DHT22;5028;50.974;4.968;2023-03-14T03:32:14;9.10;99.90
9975;DHT22;5028;50.974;4.968;2023-03-14T03:34:43;9.10;99.90
9975;DHT22;5028;50.974;4.968;2023-03-14T03:37:18;9.20;99.90
9975;DHT22;5028;50.974;4.968;2023-03-14T03:39:54;9.20;99.90
9975;DHT22;5028;50.974;4.968;2023-03-14T03:42:22;9.30;99.90
9975;DHT22;5028;50.974;4.968;2023-03-14T03:44:59;9.30;99.90
9975;DHT22;5028;50.974;4.968;2023-03-14T03:47:35;9.30;99.90
9975;DHT22;5028;50.974;4.968;2023-03-14T03:50:04;9.40;99.90
9975;DHT22;5028;50.974;4.968;2023-03-14T03:52:40;9.40;99.90
9975;DHT22;5028;50.974;4.968;2023-03-14T03:55:17;9.40;99.90
9975;DHT22;5028;50.974;4.968;2023-03-14T03:57:46;9.40;99.90
9975;DHT22;5028;50.974;4.968;2023-03-14T04:00:23;9.40;99.90
9975;DHT22;5028;50.974;4.968;2023-03-14T04:02:58;9.40;99.90
9975;DHT22;5028;50.974;4.968;2023-03-14T04:05:28;9.40;99.90
9975;DHT22;5028;50.974;4.968;2023-03-14T04:08:04;9.40;99.90
9975;DHT22;5028;50.974;4.968;2023-03-14T04:10:47;9.40;99.90
9975;DHT22;5028;50.974;4.968;2023-03-14T04:13:29;9.40;99.90
9975;DHT22;5028;50.974;4.968;2023-03-14T04:16:14;9.40;99.90
9975;DHT22;5028;50.974;4.968;2023-03-14T04:18:50;9.50;99.90
9975;DHT22;5028;50.974;4.968;2023-03-14T04:21:19;9.50;99.90
9975;DHT22;5028;50.974;4.968;2023-03-14T04:23:55;9.50;99.90
9975;DHT22;5028;50.974;4.968;2023-03-14T04:26:24;9.50;99.90
9975;DHT22;5028;50.974;4.968;2023-03-14T04:28:59;9.40;99.90
9975;DHT22;5028;50.974;4.968;2023-03-14T04:31:35;9.50;99.90
9975;DHT22;5028;50.974;4.968;2023-03-14T04:34:04;9.50;99.90
9975;DHT22;5028;50.974;4.968;2023-03-14T04:36:39;9.50;99.90
9975;DHT22;5028;50.974;4.968;2023-03-14T04:39:14;9.50;99.90
9975;DHT22;5028;50.974;4.968;2023-03-14T04:41:43;9.50;99.90
9975;DHT22;5028;50.974;4.968;2023-03-14T04:44:19;9.50;99.90
9975;DHT22;5028;50.974;4.968;2023-03-14T04:46:55;9.50;99.90
9975;DHT22;5028;50.974;4.968;2023-03-14T04:49:24;9.50;99.90
9975;DHT22;5028;50.974;4.968;2023-03-14T04:51:59;9.50;99.90
9975;DHT22;5028;50.974;4.968;2023-03-14T04:54:34;9.50;99.90
9975;DHT22;5028;50.974;4.968;2023-03-14T04:57:02;9.60;99.90
9975;DHT22;5028;50.974;4.968;2023-03-14T04:59:38;9.60;99.90
9975;DHT22;5028;50.974;4.968;2023-03-14T05:02:14;9.60;99.90
9975;DHT22;5028;50.974;4.968;2023-03-14T05:04:43;9.60;99.90
9975;DHT22;5028;50.974;4.968;2023-03-14T05:07:18;9.60;99.90
9975;DHT22;5028;50.974;4.968;2023-03-14T05:09:53;9.50;99.90
9975;DHT22;5028;50.974;4.968;2023-03-14T05:12:27;9.60;99.90
9975;DHT22;5028;50.974;4.968;2023-03-14T05:15:03;9.50;99.90
9975;DHT22;5028;50.974;4.968;2023-03-14T05:17:40;9.50;99.90
9975;DHT22;5028;50.974;4.968;2023-03-14T05:20:10;9.50;99.90
9975;DHT22;5028;50.974;4.968;2023-03-14T05:22:47;9.50;99.90
9975;DHT22;5028;50.974;4.968;2023-03-14T05:25:15;9.50;99.90
9975;DHT22;5028;50.974;4.968;2023-03-14T05:27:44;9.50;99.90
9975;DHT22;5028;50.974;4.968;2023-03-14T05:30:19;9.50;99.90
9975;DHT22;5028;50.974;4.968;2023-03-14T05:32:50;9.50;99.90
9975;DHT22;5028;50.974;4.968;2023-03-14T05:35:25;9.60;99.90
9975;DHT22;5028;50.974;4.968;2023-03-14T05:38:00;9.60;99.90
9975;DHT22;5028;50.974;4.968;2023-03-14T05:40:29;9.60;99.90
9975;DHT22;5028;50.974;4.968;2023-03-14T05:43:04;9.60;99.90
9975;DHT22;5028;50.974;4.968;2023-03-14T05:45:42;9.60;99.90
9975;DHT22;5028;50.974;4.968;2023-03-14T05:48:12;9.50;99.90
9975;DHT22;5028;50.974;4.968;2023-03-14T05:50:53;9.60;99.90
9975;DHT22;5028;50.974;4.968;2023-03-14T05:53:29;9.60;99.90
9975;DHT22;5028;50.974;4.968;2023-03-14T05:55:58;9.50;99.90
9975;DHT22;5028;50.974;4.968;2023-03-14T05:58:33;9.60;99.90
9975;DHT22;5028;50.974;4.968;2023-03-14T06:01:08;9.60;99.90
9975;DHT22;5028;50.974;4.968;2023-03-14T06:03:38;9.60;99.90
9975;DHT22;5028;50.974;4.968;2023-03-14T06:06:13;9.60;99.90
9975;DHT22;5028;50.974;4.968;2023-03-14T06:08:50;9.60;99.90
9975;DHT22;5028;50.974;4.968;2023-03-14T06:11:19;9.60;99.90
9975;DHT22;5028;50.974;4.968;2023-03-14T06:13:54;9.70;99.90
9975;DHT22;5028;50.974;4.968;2023-03-14T06:16:36;9.60;99.90
9975;DHT22;5028;50.974;4.968;2023-03-14T06:19:06;9.70;99.90
9975;DHT22;5028;50.974;4.968;2023-03-14T06:21:41;9.60;99.90
9975;DHT22;5028;50.974;4.968;2023-03-14T06:24:09;9.60;99.90
9975;DHT22;5028;50.974;4.968;2023-03-14T06:26:38;9.60;99.90
9975;DHT22;5028;50.974;4.968;2023-03-14T06:29:13;9.70;99.90
9975;DHT22;5028;50.974;4.968;2023-03-14T06:31:42;9.70;99.90
9975;DHT22;5028;50.974;4.968;2023-03-14T06:34:19;9.70;99.90
9975;DHT22;5028;50.974;4.968;2023-03-14T06:36:54;9.70;99.90
9975;DHT22;5028;50.974;4.968;2023-03-14T06:39:22;9.70;99.90
9975;DHT22;5028;50.974;4.968;2023-03-14T06:41:57;9.70;99.90
9975;DHT22;5028;50.974;4.968;2023-03-14T06:44:32;9.70;99.90
9975;DHT22;5028;50.974;4.968;2023-03-14T06:47:01;9.80;99.90
9975;DHT22;5028;50.974;4.968;2023-03-14T06:49:37;9.80;99.90
9975;DHT22;5028;50.974;4.968;2023-03-14T06:52:16;9.80;99.90
9975;DHT22;5028;50.974;4.968;2023-03-14T06:54:44;9.80;99.90
9975;DHT22;5028;50.974;4.968;2023-03-14T06:57:20;9.80;99.90
9975;DHT22;5028;50.974;4.968;2023-03-14T06:59:55;9.90;99.90
9975;DHT22;5028;50.974;4.968;2023-03-14T07:02:24;9.80;99.90
9975;DHT22;5028;50.974;4.968;2023-03-14T07:05:10;9.80;99.90
9975;DHT22;5028;50.974;4.968;2023-03-14T07:07:45;9.80;99.90
9975;DHT22;5028;50.974;4.968;2023-03-14T07:10:14;9.70;99.90
9975;DHT22;5028;50.974;4.968;2023-03-14T07:12:56;9.70;99.90
9975;DHT22;5028;50.974;4.968;2023-03-14T07:15:32;9.70;99.90
9975;DHT22;5028;50.974;4.968;2023-03-14T07:18:00;9.70;99.90
9975;DHT22;5028;50.974;4.968;2023-03-14T07:20:38;9.70;99.90
9975;DHT22;5028;50.974;4.968;2023-03-14T07:23:06;9.70;99.90
9975;DHT22;5028;50.974;4.968;2023-03-14T07:25:35;9.70;99.90
9975;DHT22;5028;50.974;4.968;2023-03-14T07:28:10;9.60;99.90
9975;DHT22;5028;50.974;4.968;2023-03-14T07:30:38;9.00;99.90
9975;DHT22;5028;50.974;4.968;2023-03-14T07:33:13;8.60;99.90
9975;DHT22;5028;50.974;4.968;2023-03-14T07:35:50;8.40;99.90
9975;DHT22;5028;50.974;4.968;2023-03-14T07:38:19;8.20;99.90
9975;DHT22;5028;50.974;4.968;2023-03-14T07:40:58;8.10;99.90
9975;DHT22;5028;50.974;4.968;2023-03-14T07:43:34;8.10;99.90
9975;DHT22;5028;50.974;4.968;2023-03-14T07:46:03;7.90;99.90
9975;DHT22;5028;50.974;4.968;2023-03-14T07:48:39;7.80;99.90
9975;DHT22;5028;50.974;4.968;2023-03-14T07:51:15;7.70;99.90
9975;DHT22;5028;50.974;4.968;2023-03-14T07:53:44;7.70;99.90
9975;DHT22;5028;50.974;4.968;2023-03-14T07:56:20;7.60;99.90
9975;DHT22;5028;50.974;4.968;2023-03-14T07:58:56;7.50;99.90
9975;DHT22;5028;50.974;4.968;2023-03-14T08:01:24;7.40;99.90
9975;DHT22;5028;50.974;4.968;2023-03-14T08:03:59;7.20;99.90
9975;DHT22;5028;50.974;4.968;2023-03-14T08:06:36;7.20;99.90
9975;DHT22;5028;50.974;4.968;2023-03-14T08:09:05;7.20;99.90
9975;DHT22;5028;50.974;4.968;2023-03-14T08:11:40;7.20;99.90
9975;DHT22;5028;50.974;4.968;2023-03-14T08:14:15;7.20;99.90
9975;DHT22;5028;50.974;4.968;2023-03-14T08:16:43;7.10;99.90
9975;DHT22;5028;50.974;4.968;2023-03-14T08:19:18;7.00;99.90
9975;DHT22;5028;50.974;4.968;2023-03-14T08:21:55;7.10;99.90
9975;DHT22;5028;50.974;4.968;2023-03-14T08:24:24;7.10;99.90
9975;DHT22;5028;50.974;4.968;2023-03-14T08:26:59;7.10;99.90
9975;DHT22;5028;50.974;4.968;2023-03-14T08:29:28;7.10;99.90
9975;DHT22;5028;50.974;4.968;2023-03-14T08:32:03;7.20;99.90
9975;DHT22;5028;50.974;4.968;2023-03-14T08:34:39;7.20;99.90
9975;DHT22;5028;50.974;4.968;2023-03-14T08:37:09;7.20;99.90
9975;DHT22;5028;50.974;4.968;2023-03-14T08:39:52;7.00;99.90
9975;DHT22;5028;50.974;4.968;2023-03-14T08:42:28;7.10;99.90
9975;DHT22;5028;50.974;4.968;2023-03-14T08:44:57;7.10;99.90
9975;DHT22;5028;50.974;4.968;2023-03-14T08:47:32;7.20;99.90
9975;DHT22;5028;50.974;4.968;2023-03-14T08:50:09;7.20;99.90
9975;DHT22;5028;50.974;4.968;2023-03-14T08:52:43;7.20;99.90
9975;DHT22;5028;50.974;4.968;2023-03-14T08:55:18;7.20;99.90
9975;DHT22;5028;50.974;4.968;2023-03-14T08:57:47;7.30;99.90
9975;DHT22;5028;50.974;4.968;2023-03-14T09:00:22;7.30;99.90
9975;DHT22;5028;50.974;4.968;2023-03-14T09:02:51;7.40;99.90
9975;DHT22;5028;50.974;4.968;2023-03-14T09:05:26;7.40;99.90
9975;DHT22;5028;50.974;4.968;2023-03-14T09:07:56;7.50;99.90
9975;DHT22;5028;50.974;4.968;2023-03-14T09:10:31;7.60;99.90
9975;DHT22;5028;50.974;4.968;2023-03-14T09:13:00;7.60;99.90
9975;DHT22;5028;50.974;4.968;2023-03-14T09:15:50;7.60;99.90
9975;DHT22;5028;50.974;4.968;2023-03-14T09:18:19;7.70;99.90
9975;DHT22;5028;50.974;4.968;2023-03-14T09:20:56;7.80;99.90
9975;DHT22;5028;50.974;4.968;2023-03-14T09:23:27;7.80;99.90
9975;DHT22;5028;50.974;4.968;2023-03-14T09:26:02;7.80;99.90
9975;DHT22;5028;50.974;4.968;2023-03-14T09:28:31;7.70;99.90
9975;DHT22;5028;50.974;4.968;2023-03-14T09:31:07;7.60;99.90
9975;DHT22;5028;50.974;4.968;2023-03-14T09:33:42;7.60;99.90
9975;DHT22;5028;50.974;4.968;2023-03-14T09:36:12;7.60;99.90
9975;DHT22;5028;50.974;4.968;2023-03-14T09:38:48;7.50;99.90
9975;DHT22;5028;50.974;4.968;2023-03-14T09:41:21;7.50;99.90
9975;DHT22;5028;50.974;4.968;2023-03-14T09:44:03;7.50;99.90
9975;DHT22;5028;50.974;4.968;2023-03-14T09:46:36;7.40;99.90
9975;DHT22;5028;50.974;4.968;2023-03-14T09:49:21;7.30;99.90
9975;DHT22;5028;50.974;4.968;2023-03-14T09:51:54;7.40;99.90
9975;DHT22;5028;50.974;4.968;2023-03-14T09:54:35;7.40;99.90
9975;DHT22;5028;50.974;4.968;2023-03-14T09:57:09;7.50;99.90
9975;DHT22;5028;50.974;4.968;2023-03-14T09:59:49;7.60;99.90
9975;DHT22;5028;50.974;4.968;2023-03-14T10:02:28;7.70;99.90
9975;DHT22;5028;50.974;4.968;2023-03-14T10:05:00;7.60;99.90
9975;DHT22;5028;50.974;4.968;2023-03-14T10:07:35;7.30;99.90
9975;DHT22;5028;50.974;4.968;2023-03-14T10:10:10;7.10;99.90
9975;DHT22;5028;50.974;4.968;2023-03-14T10:12:47;6.90;99.90
9975;DHT22;5028;50.974;4.968;2023-03-14T10:15:25;6.70;99.90
9975;DHT22;5028;50.974;4.968;2023-03-14T10:18:02;6.60;99.90
9975;DHT22;5028;50.974;4.968;2023-03-14T10:20:33;6.60;99.90
9975;DHT22;5028;50.974;4.968;2023-03-14T10:23:22;6.60;99.90
9975;DHT22;5028;50.974;4.968;2023-03-14T10:26:06;6.60;99.90
9975;DHT22;5028;50.974;4.968;2023-03-14T10:28:44;6.50;99.90
9975;DHT22;5028;50.974;4.968;2023-03-14T10:31:13;6.50;99.90
9975;DHT22;5028;50.974;4.968;2023-03-14T10:33:58;6.50;99.90
9975;DHT22;5028;50.974;4.968;2023-03-14T10:36:28;6.50;99.90
9975;DHT22;5028;50.974;4.968;2023-03-14T10:39:27;6.50;99.90
9975;DHT22;5028;50.974;4.968;2023-03-14T10:42:04;6.50;99.90
9975;DHT22;5028;50.974;4.968;2023-03-14T10:44:39;6.60;99.90
9975;DHT22;5028;50.974;4.968;2023-03-14T10:47:18;6.70;99.90
9975;DHT22;5028;50.974;4.968;2023-03-14T10:49:53;6.80;99.90
9975;DHT22;5028;50.974;4.968;2023-03-14T10:52:24;6.90;99.90
9975;DHT22;5028;50.974;4.968;2023-03-14T10:55:19;6.90;99.90
9975;DHT22;5028;50.974;4.968;2023-03-14T10:57:50;6.90;99.90
9975;DHT22;5028;50.974;4.968;2023-03-14T11:00:25;6.90;99.90
9975;DHT22;5028;50.974;4.968;2023-03-14T11:03:03;6.80;99.90
9975;DHT22;5028;50.974;4.968;2023-03-14T11:05:42;6.80;99.90
9975;DHT22;5028;50.974;4.968;2023-03-14T11:08:18;6.70;99.90
9975;DHT22;5028;50.974;4.968;2023-03-14T11:10:58;6.70;99.90
9975;DHT22;5028;50.974;4.968;2023-03-14T11:13:45;6.80;99.90
9975;DHT22;5028;50.974;4.968;2023-03-14T11:16:32;6.70;99.90
9975;DHT22;5028;50.974;4.968;2023-03-14T11:19:28;6.80;99.90
9975;DHT22;5028;50.974;4.968;2023-03-14T11:22:17;6.80;99.90
9975;DHT22;5028;50.974;4.968;2023-03-14T11:25:02;6.80;99.90
9975;DHT22;5028;50.974;4.968;2023-03-14T11:27:42;6.70;99.90
9975;DHT22;5028;50.974;4.968;2023-03-14T11:30:18;6.60;99.90
9975;DHT22;5028;50.974;4.968;2023-03-14T11:32:59;6.50;99.90
9975;DHT22;5028;50.974;4.968;2023-03-14T11:35:34;6.50;99.90
9975;DHT22;5028;50.974;4.968;2023-03-14T11:38:24;6.50;99.90
9975;DHT22;5028;50.974;4.968;2023-03-14T11:40:58;6.70;99.90
9975;DHT22;5028;50.974;4.968;2023-03-14T11:43:35;6.80;99.90
9975;DHT22;5028;50.974;4.968;2023-03-14T11:46:12;7.00;99.90
9975;DHT22;5028;50.974;4.968;2023-03-14T11:48:59;7.10;99.90
9975;DHT22;5028;50.974;4.968;2023-03-14T11:51:34;7.00;99.90
9975;DHT22;5028;50.974;4.968;2023-03-14T11:54:16;7.10;99.90
9975;DHT22;5028;50.974;4.968;2023-03-14T11:56:57;7.20;99.90
9975;DHT22;5028;50.974;4.968;2023-03-14T11:59:31;7.50;99.90
9975;DHT22;5028;50.974;4.968;2023-03-14T12:02:16;7.60;99.90
9975;DHT22;5028;50.974;4.968;2023-03-14T12:05:03;7.60;99.90
9975;DHT22;5028;50.974;4.968;2023-03-14T12:07:48;7.60;99.90
9975;DHT22;5028;50.974;4.968;2023-03-14T12:10:27;7.50;99.90
9975;DHT22;5028;50.974;4.968;2023-03-14T12:12:59;7.60;99.90
9975;DHT22;5028;50.974;4.968;2023-03-14T12:15:50;7.60;99.90
9975;DHT22;5028;50.974;4.968;2023-03-14T12:18:32;7.60;99.90
9975;DHT22;5028;50.974;4.968;2023-03-14T12:21:03;7.60;99.90
9975;DHT22;5028;50.974;4.968;2023-03-14T12:23:43;7.60;99.90
9975;DHT22;5028;50.974;4.968;2023-03-14T12:26:22;7.50;99.90
9975;DHT22;5028;50.974;4.968;2023-03-14T12:28:52;7.10;99.90
9975;DHT22;5028;50.974;4.968;2023-03-14T12:31:46;6.20;99.90
9975;DHT22;5028;50.974;4.968;2023-03-14T12:34:42;5.70;99.90
9975;DHT22;5028;50.974;4.968;2023-03-14T12:37:33;5.60;99.90
9975;DHT22;5028;50.974;4.968;2023-03-14T12:40:15;5.50;99.90
9975;DHT22;5028;50.974;4.968;2023-03-14T12:42:57;5.50;99.90
9975;DHT22;5028;50.974;4.968;2023-03-14T12:45:28;5.60;99.90
9975;DHT22;5028;50.974;4.968;2023-03-14T12:48:08;5.50;99.90
9975;DHT22;5028;50.974;4.968;2023-03-14T12:50:54;5.60;99.90
9975;DHT22;5028;50.974;4.968;2023-03-14T12:53:58;5.70;99.90
9975;DHT22;5028;50.974;4.968;2023-03-14T12:56:49;5.80;99.90
9975;DHT22;5028;50.974;4.968;2023-03-14T12:59:33;5.90;99.90
9975;DHT22;5028;50.974;4.968;2023-03-14T13:02:23;5.80;99.90
9975;DHT22;5028;50.974;4.968;2023-03-14T13:05:01;5.80;99.90
9975;DHT22;5028;50.974;4.968;2023-03-14T13:08:05;5.90;99.90
9975;DHT22;5028;50.974;4.968;2023-03-14T13:10:45;6.10;99.90
9975;DHT22;5028;50.974;4.968;2023-03-14T13:13:24;6.00;99.90
9975;DHT22;5028;50.974;4.968;2023-03-14T13:16:01;6.10;99.90
9975;DHT22;5028;50.974;4.968;2023-03-14T13:18:39;6.10;99.90
9975;DHT22;5028;50.974;4.968;2023-03-14T13:21:12;6.20;99.90
9975;DHT22;5028;50.974;4.968;2023-03-14T13:23:58;6.20;99.90
9975;DHT22;5028;50.974;4.968;2023-03-14T13:26:34;6.10;99.90
9975;DHT22;5028;50.974;4.968;2023-03-14T13:29:15;6.10;99.90
9975;DHT22;5028;50.974;4.968;2023-03-14T13:31:45;6.10;99.90
9975;DHT22;5028;50.974;4.968;2023-03-14T13:34:20;6.10;99.90
9975;DHT22;5028;50.974;4.968;2023-03-14T13:36:56;6.10;99.90
9975;DHT22;5028;50.974;4.968;2023-03-14T13:39:28;5.90;99.90
9975;DHT22;5028;50.974;4.968;2023-03-14T13:42:14;5.90;99.90
9975;DHT22;5028;50.974;4.968;2023-03-14T13:44:43;5.90;99.90
9975;DHT22;5028;50.974;4.968;2023-03-14T13:47:20;5.80;99.90
9975;DHT22;5028;50.974;4.968;2023-03-14T13:49:49;5.70;99.90
9975;DHT22;5028;50.974;4.968;2023-03-14T13:52:29;5.60;99.90
9975;DHT22;5028;50.974;4.968;2023-03-14T13:55:15;5.60;99.90
9975;DHT22;5028;50.974;4.968;2023-03-14T13:57:46;5.50;99.90
9975;DHT22;5028;50.974;4.968;2023-03-14T14:00:23;5.60;99.90
9975;DHT22;5028;50.974;4.968;2023-03-14T14:02:54;5.60;99.90
9975;DHT22;5028;50.974;4.968;2023-03-14T14:05:30;5.60;99.90
9975;DHT22;5028;50.974;4.968;2023-03-14T14:08:11;5.70;99.90
9975;DHT22;5028;50.974;4.968;2023-03-14T14:10:41;5.80;99.90
9975;DHT22;5028;50.974;4.968;2023-03-14T14:13:24;5.80;99.90
9975;DHT22;5028;50.974;4.968;2023-03-14T14:16:07;5.90;99.90
9975;DHT22;5028;50.974;4.968;2023-03-14T14:18:44;5.90;99.90
9975;DHT22;5028;50.974;4.968;2023-03-14T14:21:13;6.00;99.90
9975;DHT22;5028;50.974;4.968;2023-03-14T14:23:48;6.00;99.90
9975;DHT22;5028;50.974;4.968;2023-03-14T14:26:20;6.10;99.90
9975;DHT22;5028;50.974;4.968;2023-03-14T14:28:58;6.10;99.90
9975;DHT22;5028;50.974;4.968;2023-03-14T14:31:33;6.20;99.90
9975;DHT22;5028;50.974;4.968;2023-03-14T14:34:03;6.20;99.90
9975;DHT22;5028;50.974;4.968;2023-03-14T14:36:40;6.30;99.90
9975;DHT22;5028;50.974;4.968;2023-03-14T14:39:20;6.40;99.90
9975;DHT22;5028;50.974;4.968;2023-03-14T14:41:52;6.40;99.90
9975;DHT22;5028;50.974;4.968;2023-03-14T14:44:29;6.50;99.90
9975;DHT22;5028;50.974;4.968;2023-03-14T14:46:58;6.50;99.90
9975;DHT22;5028;50.974;4.968;2023-03-14T14:49:33;6.60;99.90
9975;DHT22;5028;50.974;4.968;2023-03-14T14:52:05;6.60;99.90
9975;DHT22;5028;50.974;4.968;2023-03-14T14:54:44;6.70;99.90
9975;DHT22;5028;50.974;4.968;2023-03-14T14:57:26;6.70;99.90
9975;DHT22;5028;50.974;4.968;2023-03-14T15:00:02;6.80;99.90
9975;DHT22;5028;50.974;4.968;2023-03-14T15:02:44;6.70;99.90
9975;DHT22;5028;50.974;4.968;2023-03-14T15:05:14;6.60;99.90
9975;DHT22;5028;50.974;4.968;2023-03-14T15:07:50;6.60;99.90
9975;DHT22;5028;50.974;4.968;2023-03-14T15:10:20;6.50;99.90
9975;DHT22;5028;50.974;4.968;2023-03-14T15:12:57;6.40;99.90
9975;DHT22;5028;50.974;4.968;2023-03-14T15:15:41;6.20;99.90
9975;DHT22;5028;50.974;4.968;2023-03-14T15:18:13;6.10;99.90
9975;DHT22;5028;50.974;4.968;2023-03-14T15:20:48;6.00;99.90
9975;DHT22;5028;50.974;4.968;2023-03-14T15:23:23;6.00;99.90
9975;DHT22;5028;50.974;4.968;2023-03-14T15:25:52;6.10;99.90
9975;DHT22;5028;50.974;4.968;2023-03-14T15:28:29;6.00;99.90
9975;DHT22;5028;50.974;4.968;2023-03-14T15:30:59;5.90;99.90
9975;DHT22;5028;50.974;4.968;2023-03-14T15:33:33;5.90;99.90
9975;DHT22;5028;50.974;4.968;2023-03-14T15:36:02;5.90;99.90
9975;DHT22;5028;50.974;4.968;2023-03-14T15:38:38;6.00;99.90
9975;DHT22;5028;50.974;4.968;2023-03-14T15:41:07;6.10;99.90
9975;DHT22;5028;50.974;4.968;2023-03-14T15:43:45;6.10;99.90
9975;DHT22;5028;50.974;4.968;2023-03-14T15:46:21;6.10;99.90
9975;DHT22;5028;50.974;4.968;2023-03-14T15:48:50;6.10;99.90
9975;DHT22;5028;50.974;4.968;2023-03-14T15:51:25;6.10;99.90
9975;DHT22;5028;50.974;4.968;2023-03-14T15:53:54;6.20;99.90
9975;DHT22;5028;50.974;4.968;2023-03-14T15:56:23;6.20;99.90
9975;DHT22;5028;50.974;4.968;2023-03-14T15:59:02;6.20;99.90
9975;DHT22;5028;50.974;4.968;2023-03-14T16:01:31;6.20;99.90
9975;DHT22;5028;50.974;4.968;2023-03-14T16:04:02;6.20;99.90
9975;DHT22;5028;50.974;4.968;2023-03-14T16:06:38;6.20;99.90
9975;DHT22;5028;50.974;4.968;2023-03-14T16:09:06;6.20;99.90
9975;DHT22;5028;50.974;4.968;2023-03-14T16:11:41;6.20;99.90
9975;DHT22;5028;50.974;4.968;2023-03-14T16:14:19;6.10;99.90
9975;DHT22;5028;50.974;4.968;2023-03-14T16:16:54;6.10;99.90
9975;DHT22;5028;50.974;4.968;2023-03-14T16:19:34;6.10;99.90
9975;DHT22;5028;50.974;4.968;2023-03-14T16:22:09;6.10;99.90
9975;DHT22;5028;50.974;4.968;2023-03-14T16:24:38;6.10;99.90
9975;DHT22;5028;50.974;4.968;2023-03-14T16:27:13;6.10;99.90
9975;DHT22;5028;50.974;4.968;2023-03-14T16:29:50;6.00;99.90
9975;DHT22;5028;50.974;4.968;2023-03-14T16:32:18;6.00;99.90
9975;DHT22;5028;50.974;4.968;2023-03-14T16:34:54;6.00;99.90
9975;DHT22;5028;50.974;4.968;2023-03-14T16:37:29;6.00;99.90
9975;DHT22;5028;50.974;4.968;2023-03-14T16:39:58;6.00;99.90
9975;DHT22;5028;50.974;4.968;2023-03-14T16:42:38;5.90;99.90
9975;DHT22;5028;50.974;4.968;2023-03-14T16:45:36;5.90;99.90
9975;DHT22;5028;50.974;4.968;2023-03-14T16:48:05;5.90;99.90
9975;DHT22;5028;50.974;4.968;2023-03-14T16:50:42;5.90;99.90
9975;DHT22;5028;50.974;4.968;2023-03-14T16:53:10;5.80;99.90
9975;DHT22;5028;50.974;4.968;2023-03-14T16:55:46;5.80;99.90
9975;DHT22;5028;50.974;4.968;2023-03-14T16:58:14;5.80;99.90
9975;DHT22;5028;50.974;4.968;2023-03-14T17:00:45;5.70;99.90
9975;DHT22;5028;50.974;4.968;2023-03-14T17:03:21;5.70;99.90
9975;DHT22;5028;50.974;4.968;2023-03-14T17:05:53;5.70;99.90
9975;DHT22;5028;50.974;4.968;2023-03-14T17:08:29;5.70;99.90
9975;DHT22;5028;50.974;4.968;2023-03-14T17:11:04;5.70;99.90